createdAt,value
2019-01-19T00:00:05.000Z,0.70
2019-01-19T00:02:38.322Z,0.70
2019-01-19T00:05:36.492Z,0.70
2019-01-19T00:08:09.905Z,0.70
2019-01-19T00:11:06.205Z,0.80
2019-01-19T00:13:42.570Z,0.80
2019-01-19T00:16:40.694Z,0.80
2019-01-19T00:19:18.125Z,0.80
2019-01-19T00:21:58.309Z,0.80
2019-01-19T00:24:28.788Z,1.00
2019-01-19T00:27:05.320Z,1.00
2019-01-19T00:29:38.550Z,1.00
2019-01-19T00:32:16.156Z,1.00
2019-01-19T00:35:04.536Z,0.80
2019-01-19T00:37:36.576Z,1.00
2019-01-19T00:40:22.142Z,1.10
2019-01-19T00:42:52.612Z,1.10
2019-01-19T00:45:31.843Z,1.10
2019-01-19T00:48:11.076Z,1.20
2019-01-19T00:50:53.686Z,1.10
2019-01-19T00:53:36.326Z,1.00
2019-01-19T00:56:15.296Z,0.90
2019-01-19T00:58:48.744Z,0.90
2019-01-19T01:01:22.150Z,0.90
2019-01-19T01:04:07.300Z,0.80
2019-01-19T01:06:43.447Z,0.90
2019-01-19T01:09:36.950Z,1.20
2019-01-19T01:12:12.932Z,1.30
2019-01-19T01:15:00.238Z,1.30
2019-01-19T01:17:30.681Z,1.30
2019-01-19T01:20:09.919Z,1.20
2019-01-19T01:22:40.400Z,1.10
2019-01-19T01:25:25.662Z,1.20
2019-01-19T01:27:58.787Z,1.30
2019-01-19T01:30:47.550Z,1.20
2019-01-19T01:33:44.169Z,1.30
2019-01-19T01:36:29.892Z,1.20
2019-01-19T01:39:15.886Z,1.20
2019-01-19T01:41:49.653Z,1.40
2019-01-19T01:44:31.845Z,1.30
2019-01-19T01:47:36.399Z,1.20
2019-01-19T01:50:13.024Z,1.30
2019-01-19T01:52:46.509Z,1.20
2019-01-19T01:55:22.936Z,1.30
2019-01-19T01:57:53.224Z,1.30
2019-01-19T02:00:32.442Z,1.10
2019-01-19T02:03:19.462Z,1.20
2019-01-19T02:06:01.932Z,1.30
2019-01-19T02:08:38.357Z,1.10
2019-01-19T02:11:17.386Z,1.30
2019-01-19T02:13:59.533Z,1.20
2019-01-19T02:16:52.707Z,1.10
2019-01-19T02:19:38.225Z,1.10
2019-01-19T02:22:23.588Z,1.10
2019-01-19T02:24:54.044Z,1.10
2019-01-19T02:27:36.661Z,1.10
2019-01-19T02:30:25.833Z,1.20
2019-01-19T02:33:02.597Z,1.10
2019-01-19T02:35:39.209Z,1.20
2019-01-19T02:38:25.167Z,1.00
2019-01-19T02:41:04.353Z,0.90
2019-01-19T02:43:40.806Z,1.10
2019-01-19T02:46:14.512Z,1.20
2019-01-19T02:49:01.846Z,1.20
2019-01-19T02:51:47.686Z,1.20
2019-01-19T02:54:25.189Z,1.20
2019-01-19T02:57:07.602Z,1.20
2019-01-19T02:59:41.060Z,1.30
2019-01-19T03:02:11.438Z,1.30
2019-01-19T03:04:45.270Z,1.40
2019-01-19T03:07:33.838Z,1.20
2019-01-19T03:10:33.524Z,1.20
2019-01-19T03:13:15.517Z,1.30
2019-01-19T03:16:16.344Z,1.30
2019-01-19T03:19:05.486Z,1.30
2019-01-19T03:21:56.773Z,1.30
2019-01-19T03:24:35.720Z,1.30
2019-01-19T03:27:15.164Z,1.10
2019-01-19T03:30:03.682Z,1.30
2019-01-19T03:32:54.769Z,1.20
2019-01-19T03:36:04.158Z,1.10
2019-01-19T03:38:38.437Z,1.10
2019-01-19T03:41:21.022Z,1.10
2019-01-19T03:44:08.394Z,1.00
2019-01-19T03:47:05.416Z,1.00
2019-01-19T03:49:48.700Z,1.10
2019-01-19T03:52:27.683Z,1.00
2019-01-19T03:55:07.573Z,1.00
2019-01-19T03:57:37.996Z,1.10
2019-01-19T04:00:29.947Z,1.00
2019-01-19T04:03:19.807Z,1.10
2019-01-19T04:05:58.952Z,1.10
2019-01-19T04:08:34.965Z,0.80
2019-01-19T04:11:21.146Z,0.90
2019-01-19T04:14:12.178Z,1.00
2019-01-19T04:17:00.880Z,0.90
2019-01-19T04:19:32.069Z,0.90
2019-01-19T04:22:08.539Z,0.70
2019-01-19T04:24:42.086Z,0.70
2019-01-19T04:27:09.543Z,0.70
2019-01-19T04:29:36.163Z,0.70
2019-01-19T04:32:02.745Z,0.60
2019-01-19T04:34:29.731Z,0.50
2019-01-19T04:36:56.493Z,0.80
2019-01-19T04:39:23.327Z,0.80
2019-01-19T04:41:50.002Z,0.90
2019-01-19T04:44:16.539Z,0.90
2019-01-19T04:46:43.209Z,0.80
2019-01-19T04:49:10.455Z,0.70
2019-01-19T04:51:36.930Z,0.50
2019-01-19T04:54:05.205Z,0.40
2019-01-19T04:56:31.848Z,0.40
2019-01-19T04:58:58.733Z,0.40
2019-01-19T05:01:25.254Z,0.60
2019-01-19T05:03:51.883Z,0.50
2019-01-19T05:06:20.334Z,0.60
2019-01-19T05:08:47.116Z,0.50
2019-01-19T05:11:14.441Z,0.40
2019-01-19T05:13:41.120Z,0.30
2019-01-19T05:16:07.789Z,0.30
2019-01-19T05:18:34.317Z,0.30
2019-01-19T05:21:02.379Z,0.30
2019-01-19T05:23:29.302Z,0.20
2019-01-19T05:25:56.024Z,0.30
2019-01-19T05:28:24.314Z,0.20
2019-01-19T05:30:51.285Z,0.30
2019-01-19T05:33:17.806Z,0.30
2019-01-19T05:35:45.902Z,0.40
2019-01-19T05:38:12.521Z,0.50
2019-01-19T05:40:39.204Z,0.40
2019-01-19T05:43:05.768Z,0.30
2019-01-19T05:45:32.318Z,0.20
2019-01-19T05:47:58.984Z,0.30
2019-01-19T05:50:25.521Z,0.20
2019-01-19T05:52:52.126Z,0.10
2019-01-19T05:55:18.804Z,0.20
2019-01-19T05:57:45.383Z,0.10
2019-01-19T06:00:18.207Z,0.10
2019-01-19T06:02:44.874Z,0.20
2019-01-19T06:05:11.706Z,0.10
2019-01-19T06:07:38.272Z,0.00
2019-01-19T06:10:08.901Z,0.00
2019-01-19T06:12:35.583Z,0.10
2019-01-19T06:15:06.100Z,0.10
2019-01-19T06:17:32.668Z,0.00
2019-01-19T06:19:59.184Z,0.20
2019-01-19T06:22:26.538Z,0.30
2019-01-19T06:24:53.257Z,0.30
2019-01-19T06:27:19.905Z,0.10
2019-01-19T06:29:46.633Z,0.00
2019-01-19T06:32:13.209Z,0.00
2019-01-19T06:34:39.955Z,0.20
2019-01-19T06:37:06.808Z,0.10
2019-01-19T06:39:33.337Z,0.40
2019-01-19T06:42:00.001Z,0.30
2019-01-19T06:44:26.516Z,0.20
2019-01-19T06:46:53.225Z,0.20
2019-01-19T06:49:19.932Z,0.20
2019-01-19T06:51:46.797Z,0.00
2019-01-19T06:54:13.423Z,0.00
2019-01-19T06:56:40.070Z,-0.10
2019-01-19T06:59:06.493Z,0.00
2019-01-19T07:01:33.355Z,-0.10
2019-01-19T07:04:00.084Z,0.30
2019-01-19T07:06:26.774Z,0.10
2019-01-19T07:08:53.393Z,0.30
2019-01-19T07:11:19.950Z,0.30
2019-01-19T07:13:46.570Z,0.20
2019-01-19T07:16:13.101Z,-0.10
2019-01-19T07:18:39.748Z,0.00
2019-01-19T07:21:06.480Z,0.00
2019-01-19T07:23:33.149Z,0.00
2019-01-19T07:25:59.774Z,0.00
2019-01-19T07:28:26.626Z,-0.10
2019-01-19T07:30:53.147Z,0.00
2019-01-19T07:33:19.712Z,-0.10
2019-01-19T07:35:46.433Z,-0.10
2019-01-19T07:38:14.689Z,-0.20
2019-01-19T07:40:41.223Z,-0.10
2019-01-19T07:43:08.981Z,-0.10
2019-01-19T07:45:35.526Z,0.00
2019-01-19T07:48:02.953Z,0.10
2019-01-19T07:50:29.485Z,0.10
2019-01-19T07:52:56.052Z,0.10
2019-01-19T07:55:22.794Z,0.00
2019-01-19T07:57:49.351Z,0.10
2019-01-19T08:00:18.579Z,0.00
2019-01-19T08:02:45.307Z,0.00
2019-01-19T08:05:11.869Z,-0.10
2019-01-19T08:07:38.427Z,-0.10
2019-01-19T08:10:13.879Z,0.00
2019-01-19T08:12:40.725Z,0.00
2019-01-19T08:15:13.465Z,0.00
2019-01-19T08:17:40.237Z,0.00
2019-01-19T08:20:10.069Z,-0.10
2019-01-19T08:22:36.605Z,0.00
2019-01-19T08:25:05.616Z,0.10
2019-01-19T08:27:32.277Z,0.10
2019-01-19T08:29:58.901Z,0.10
2019-01-19T08:32:25.451Z,0.00
2019-01-19T08:34:52.549Z,0.10
2019-01-19T08:37:24.405Z,0.20
2019-01-19T08:39:47.822Z,0.10
2019-01-19T08:42:14.790Z,0.30
2019-01-19T08:44:41.505Z,0.30
2019-01-19T08:47:08.074Z,0.30
2019-01-19T08:49:34.712Z,0.30
2019-01-19T08:52:01.246Z,0.40
2019-01-19T08:54:28.642Z,0.40
2019-01-19T08:56:55.270Z,0.40
2019-01-19T08:59:21.864Z,0.50
2019-01-19T09:01:48.393Z,0.30
2019-01-19T09:04:16.473Z,0.30
2019-01-19T09:06:43.102Z,0.20
2019-01-19T09:09:09.779Z,0.20
2019-01-19T09:11:36.996Z,0.30
2019-01-19T09:14:03.753Z,0.40
2019-01-19T09:16:30.360Z,0.30
2019-01-19T09:18:56.953Z,0.40
2019-01-19T09:21:23.479Z,0.30
2019-01-19T09:23:52.048Z,0.30
2019-01-19T09:26:18.586Z,0.30
2019-01-19T09:28:45.173Z,0.30
2019-01-19T09:31:11.805Z,0.40
2019-01-19T09:33:38.362Z,0.40
2019-01-19T09:36:04.998Z,0.40
2019-01-19T09:38:31.818Z,0.40
2019-01-19T09:40:58.365Z,0.40
2019-01-19T09:43:24.908Z,0.40
2019-01-19T09:45:51.538Z,0.50
2019-01-19T09:48:18.103Z,0.40
2019-01-19T09:50:44.825Z,0.50
2019-01-19T09:53:11.380Z,0.80
2019-01-19T09:55:38.011Z,0.90
2019-01-19T09:58:04.873Z,1.00
2019-01-19T10:00:36.684Z,1.30
2019-01-19T10:03:01.109Z,1.50
2019-01-19T10:05:27.679Z,1.60
2019-01-19T10:07:54.514Z,1.60
2019-01-19T10:10:21.284Z,1.40
2019-01-19T10:12:47.904Z,1.30
2019-01-19T10:15:15.861Z,1.50
2019-01-19T10:17:42.398Z,1.60
2019-01-19T10:20:24.693Z,1.40
2019-01-19T10:22:51.422Z,1.20
2019-01-19T10:25:17.975Z,1.20
2019-01-19T10:27:44.913Z,1.20
2019-01-19T10:30:17.613Z,1.40
2019-01-19T10:32:44.340Z,1.50
2019-01-19T10:35:12.608Z,1.50
2019-01-19T10:37:39.339Z,1.50
2019-01-19T10:40:09.168Z,1.30
2019-01-19T10:42:35.620Z,1.40
2019-01-19T10:45:05.147Z,1.50
2019-01-19T10:47:31.661Z,1.40
2019-01-19T10:49:58.226Z,1.20
2019-01-19T10:52:24.857Z,1.20
2019-01-19T10:54:51.540Z,1.20
2019-01-19T10:57:18.052Z,1.20
2019-01-19T10:59:44.716Z,1.30
2019-01-19T11:02:11.469Z,1.50
2019-01-19T11:04:38.041Z,1.70
2019-01-19T11:07:04.669Z,1.70
2019-01-19T11:09:31.560Z,1.50
2019-01-19T11:11:58.094Z,1.30
2019-01-19T11:14:24.580Z,1.50
2019-01-19T11:16:51.088Z,1.50
2019-01-19T11:19:17.645Z,1.60
2019-01-19T11:21:44.200Z,1.80
2019-01-19T11:24:11.344Z,1.80
2019-01-19T11:26:37.948Z,1.80
2019-01-19T11:29:04.564Z,1.90
2019-01-19T11:31:32.861Z,1.90
2019-01-19T11:34:00.077Z,1.70
2019-01-19T11:36:27.865Z,1.80
2019-01-19T11:38:54.536Z,1.90
2019-01-19T11:41:21.158Z,1.70
2019-01-19T11:43:47.870Z,1.60
2019-01-19T11:46:14.470Z,1.70
2019-01-19T11:48:41.584Z,1.90
2019-01-19T11:51:08.277Z,1.80
2019-01-19T11:53:35.021Z,1.80
2019-01-19T11:56:03.120Z,2.00
2019-01-19T11:58:30.187Z,1.90
2019-01-19T12:00:56.737Z,2.00
2019-01-19T12:03:23.401Z,1.90
2019-01-19T12:05:50.186Z,1.90
2019-01-19T12:08:19.666Z,1.90
2019-01-19T12:10:45.189Z,2.00
2019-01-19T12:13:11.619Z,1.90
2019-01-19T12:15:38.224Z,1.90
2019-01-19T12:18:05.117Z,2.00
2019-01-19T12:20:37.324Z,1.80
2019-01-19T12:23:05.032Z,1.90
2019-01-19T12:25:31.605Z,2.10
2019-01-19T12:27:58.253Z,2.10
2019-01-19T12:30:27.181Z,2.20
2019-01-19T12:32:53.766Z,2.10
2019-01-19T12:35:20.300Z,2.10
2019-01-19T12:37:47.635Z,2.20
2019-01-19T12:40:17.197Z,2.20
2019-01-19T12:42:45.142Z,2.20
2019-01-19T12:45:24.661Z,2.20
2019-01-19T12:47:51.555Z,2.20
2019-01-19T12:50:24.403Z,2.00
2019-01-19T12:52:50.984Z,2.10
2019-01-19T12:55:18.296Z,2.10
2019-01-19T12:57:44.906Z,2.20
2019-01-19T13:00:15.085Z,2.30
2019-01-19T13:02:42.046Z,2.50
2019-01-19T13:05:15.120Z,2.70
2019-01-19T13:07:41.750Z,2.90
2019-01-19T13:10:15.317Z,3.30
2019-01-19T13:12:42.621Z,3.50
2019-01-19T13:15:16.031Z,3.80
2019-01-19T13:18:12.522Z,3.80
2019-01-19T13:20:49.195Z,4.20
2019-01-19T13:23:31.215Z,4.40
2019-01-19T13:26:10.645Z,4.40
2019-01-19T13:28:44.511Z,4.50
2019-01-19T13:31:26.966Z,4.50
2019-01-19T13:34:13.991Z,4.30
2019-01-19T13:36:56.544Z,4.50
2019-01-19T13:39:29.461Z,4.80
2019-01-19T13:42:14.518Z,4.80
2019-01-19T13:44:56.757Z,4.90
2019-01-19T13:47:42.606Z,4.90
2019-01-19T13:50:32.931Z,5.10
2019-01-19T14:12:28.484Z,5.60
2019-01-19T14:15:07.479Z,5.60
2019-01-19T14:17:40.901Z,5.30
2019-01-19T14:20:48.676Z,5.20
2019-01-19T14:23:34.589Z,5.40
2019-01-19T14:26:07.807Z,5.00
2019-01-19T14:29:01.321Z,5.10
2019-01-19T14:31:57.585Z,5.00
2019-01-19T14:34:39.808Z,4.50
2019-01-19T14:37:16.330Z,4.20
2019-01-19T14:40:17.080Z,4.70
2019-01-19T14:43:10.456Z,4.70
2019-01-19T14:45:43.686Z,4.10
2019-01-19T14:48:14.193Z,3.40
2019-01-19T14:50:52.047Z,3.10
2019-01-19T14:53:54.524Z,2.90
2019-01-19T14:56:31.095Z,2.60
2019-01-19T14:59:24.274Z,2.50
2019-01-19T15:02:11.210Z,2.30
2019-01-19T15:04:47.972Z,2.00
2019-01-19T15:07:26.983Z,1.80
2019-01-19T15:10:00.292Z,1.70
2019-01-19T15:12:37.025Z,1.60
2019-01-19T15:15:10.112Z,1.60
2019-01-19T15:18:02.104Z,1.40
2019-01-19T15:20:44.976Z,1.30
2019-01-19T15:23:24.403Z,1.50
2019-01-19T15:26:09.308Z,1.30
2019-01-19T15:28:48.808Z,0.90
2019-01-19T15:31:27.737Z,0.80
2019-01-19T15:33:58.264Z,0.90
2019-01-19T15:36:31.681Z,0.80
2019-01-19T15:39:02.171Z,0.80
2019-01-19T15:41:38.700Z,0.80
2019-01-19T15:44:12.081Z,0.80
2019-01-19T15:47:05.663Z,0.80
2019-01-19T15:49:52.881Z,0.80
2019-01-19T15:52:38.611Z,0.70
2019-01-19T15:55:20.935Z,0.60
2019-01-19T15:58:09.399Z,0.60
2019-01-19T16:00:49.185Z,0.60
2019-01-19T16:03:22.577Z,0.70
2019-01-19T16:06:11.899Z,0.70
2019-01-19T16:08:48.612Z,0.50
2019-01-19T16:11:25.046Z,0.50
2019-01-19T16:14:24.935Z,0.50
2019-01-19T16:17:01.187Z,0.50
2019-01-19T16:22:11.156Z,0.40
2019-01-19T16:24:47.246Z,0.40
2019-01-19T16:27:26.503Z,0.30
2019-01-19T16:30:19.925Z,0.30
2019-01-19T16:32:50.306Z,0.20
2019-01-19T16:35:23.664Z,0.10
2019-01-19T16:37:57.165Z,0.10
2019-01-19T16:40:45.756Z,0.10
2019-01-19T16:43:42.480Z,0.20
2019-01-19T16:46:24.972Z,0.30
2019-01-19T16:49:01.457Z,0.30
2019-01-19T16:51:34.517Z,0.20
2019-01-19T16:54:19.712Z,0.20
2019-01-19T16:56:50.198Z,0.10
2019-01-19T16:59:55.704Z,0.00
2019-01-19T17:02:35.340Z,0.00
2019-01-19T17:05:23.716Z,0.10
2019-01-19T17:07:55.140Z,0.00
2019-01-19T17:10:41.268Z,0.00
2019-01-19T17:13:27.131Z,-0.10
2019-01-19T17:16:18.126Z,-0.10
2019-01-19T17:19:06.138Z,-0.20
2019-01-19T17:21:42.266Z,-0.20
2019-01-19T17:24:30.613Z,-0.20
2019-01-19T17:27:09.949Z,-0.10
2019-01-19T17:29:52.699Z,-0.10
2019-01-19T17:32:58.328Z,-0.20
2019-01-19T17:35:56.301Z,-0.30
2019-01-19T17:38:51.365Z,-0.40
2019-01-19T17:41:39.641Z,-0.40
2019-01-19T17:44:15.783Z,-0.40
2019-01-19T17:46:52.224Z,-0.40
2019-01-19T17:49:22.693Z,-0.50
2019-01-19T17:52:05.225Z,-0.50
2019-01-19T17:54:38.428Z,-0.60
2019-01-19T17:57:27.095Z,-0.60
2019-01-19T18:00:08.584Z,-0.60
2019-01-19T18:02:56.708Z,-0.70
2019-01-19T18:05:29.955Z,-0.70
2019-01-19T18:08:09.137Z,-0.80
2019-01-19T18:11:01.783Z,-0.90
2019-01-19T18:14:01.276Z,-0.80
2019-01-19T18:16:31.750Z,-0.90
2019-01-19T18:19:05.129Z,-0.90
2019-01-19T18:21:38.572Z,-1.10
2019-01-19T18:24:31.743Z,-1.00
2019-01-19T18:27:32.344Z,-1.10
2019-01-19T18:30:30.004Z,-1.10
2019-01-19T18:33:09.136Z,-1.20
2019-01-19T18:35:39.597Z,-1.30
2019-01-19T18:38:19.243Z,-1.20
2019-01-19T18:40:55.781Z,-1.10
2019-01-19T18:43:28.970Z,-1.10
2019-01-19T18:46:05.281Z,-1.10
2019-01-19T18:48:52.922Z,-1.20
2019-01-19T18:51:38.350Z,-1.10
2019-01-19T18:54:18.034Z,-1.20
2019-01-19T18:57:08.026Z,-1.40
2019-01-19T18:59:44.171Z,-1.50
2019-01-19T19:02:20.220Z,-1.60
2019-01-19T19:05:09.175Z,-1.70
2019-01-19T19:07:42.673Z,-1.60
2019-01-19T19:10:34.780Z,-1.70
2019-01-19T19:13:23.140Z,-1.60
2019-01-19T19:15:58.348Z,-1.50
2019-01-19T19:18:41.268Z,-1.30
2019-01-19T19:21:20.705Z,-1.30
2019-01-19T19:24:08.871Z,-1.30
2019-01-19T19:27:13.007Z,-1.10
2019-01-19T19:29:55.044Z,-1.20
2019-01-19T19:32:46.896Z,-1.10
2019-01-19T19:35:20.075Z,-1.20
2019-01-19T19:37:53.212Z,-1.30
2019-01-19T19:40:52.783Z,-1.20
2019-01-19T19:43:39.665Z,-1.20
2019-01-19T19:46:16.186Z,-1.10
2019-01-19T19:49:01.390Z,-1.20
2019-01-19T19:51:48.187Z,-1.20
2019-01-19T19:54:14.880Z,-1.40
2019-01-19T19:56:41.299Z,-1.50
2019-01-19T19:59:08.813Z,-1.40
2019-01-19T20:01:35.579Z,-1.40
2019-01-19T20:04:02.206Z,-1.40
2019-01-19T20:06:28.967Z,-1.30
2019-01-19T20:08:55.639Z,-1.20
2019-01-19T20:11:22.173Z,-1.30
2019-01-19T20:13:48.779Z,-1.30
2019-01-19T20:16:15.436Z,-1.50
2019-01-19T20:18:42.042Z,-1.50
2019-01-19T20:21:08.622Z,-1.50
2019-01-19T20:23:35.193Z,-1.40
2019-01-19T20:26:02.062Z,-1.50
2019-01-19T20:28:28.780Z,-1.30
2019-01-19T20:30:55.758Z,-1.20
2019-01-19T20:33:22.208Z,-1.30
2019-01-19T20:35:48.776Z,-1.40
2019-01-19T20:38:15.806Z,-1.40
2019-01-19T20:40:42.371Z,-1.20
2019-01-19T20:43:08.884Z,-1.10
2019-01-19T20:45:36.144Z,-1.10
2019-01-19T20:48:03.062Z,-1.00
2019-01-19T20:50:30.569Z,-1.00
2019-01-19T20:52:58.793Z,-1.10
2019-01-19T20:55:25.470Z,-1.00
2019-01-19T20:57:51.995Z,-0.90
2019-01-19T21:00:19.097Z,-1.10
2019-01-19T21:02:45.723Z,-1.10
2019-01-19T21:05:12.648Z,-1.20
2019-01-19T21:07:39.191Z,-1.10
2019-01-19T21:10:09.230Z,-1.00
2019-01-19T21:12:35.994Z,-1.00
2019-01-19T21:15:05.845Z,-1.30
2019-01-19T21:17:33.673Z,-1.00
2019-01-19T21:20:00.653Z,-1.10
2019-01-19T21:22:27.296Z,-1.30
2019-01-19T21:24:53.954Z,-1.20
2019-01-19T21:27:20.892Z,-1.20
2019-01-19T21:29:47.556Z,-1.20
2019-01-19T21:32:14.228Z,-1.10
2019-01-19T21:34:40.745Z,-1.10
2019-01-19T21:37:07.325Z,-1.10
2019-01-19T21:39:35.553Z,-1.20
2019-01-19T21:42:02.213Z,-1.10
2019-01-19T21:44:28.940Z,-1.20
2019-01-19T21:46:55.580Z,-1.10
2019-01-19T21:49:22.154Z,-0.90
2019-01-19T21:51:49.024Z,-1.20
2019-01-19T21:54:15.680Z,-1.40
2019-01-19T21:56:42.531Z,-1.30
2019-01-19T21:59:09.279Z,-1.20
2019-01-19T22:01:35.858Z,-1.10
2019-01-19T22:04:02.906Z,-1.10
2019-01-19T22:06:29.734Z,-1.30
2019-01-19T22:08:56.752Z,-1.20
2019-01-19T22:11:23.424Z,-1.00
2019-01-19T22:13:50.298Z,-1.10
2019-01-19T22:16:16.973Z,-1.20
2019-01-19T22:18:43.756Z,-1.30
2019-01-19T22:21:10.422Z,-1.20
2019-01-19T22:23:37.117Z,-1.10
2019-01-19T22:26:04.589Z,-1.00
2019-01-19T22:28:31.156Z,-1.00
2019-01-19T22:30:57.758Z,-1.30
2019-01-19T22:33:24.735Z,-1.40
2019-01-19T22:35:51.252Z,-1.40
2019-01-19T22:38:17.821Z,-1.30
2019-01-19T22:40:44.444Z,-1.30
2019-01-19T22:43:11.404Z,-1.40
2019-01-19T22:45:37.930Z,-1.30
2019-01-19T22:48:04.508Z,-1.20
2019-01-19T22:50:31.077Z,-1.20
2019-01-19T22:52:57.742Z,-1.30
2019-01-19T22:55:24.264Z,-1.40
2019-01-19T22:57:50.935Z,-1.30
2019-01-19T23:00:24.917Z,-1.20
2019-01-19T23:02:51.606Z,-1.10
2019-01-19T23:05:18.212Z,-1.30
2019-01-19T23:07:44.862Z,-1.20
2019-01-19T23:10:13.320Z,-1.10
2019-01-19T23:12:41.593Z,-1.20
2019-01-19T23:15:09.420Z,-1.30
2019-01-19T23:17:36.010Z,-1.40
2019-01-19T23:20:06.381Z,-1.10
2019-01-19T23:22:33.150Z,-1.20
2019-01-19T23:25:00.443Z,-1.20
2019-01-19T23:27:26.893Z,-1.20
2019-01-19T23:29:53.505Z,-1.20
2019-01-19T23:32:20.020Z,-1.20
2019-01-19T23:34:46.469Z,-1.30
2019-01-19T23:37:13.118Z,-1.30
2019-01-19T23:39:39.641Z,-1.20
2019-01-19T23:42:06.165Z,-1.20
2019-01-19T23:44:32.745Z,-1.20
2019-01-19T23:47:00.329Z,-1.40
2019-01-19T23:49:26.898Z,-1.40
2019-01-19T23:51:53.500Z,-1.40
2019-01-19T23:54:20.175Z,-1.30
2019-01-19T23:56:46.651Z,-1.20
2019-01-19T23:59:13.173Z,-1.30
